createdAt,value
2019-03-29T00:01:42.348Z,11.03
2019-03-29T00:04:12.139Z,11.67
2019-03-29T00:06:41.914Z,11.30
2019-03-29T00:09:10.534Z,10.93
2019-03-29T00:11:39.247Z,9.83
2019-03-29T00:14:08.967Z,9.53
2019-03-29T00:16:37.592Z,9.60
2019-03-29T00:19:07.214Z,9.80
2019-03-29T00:21:35.936Z,10.17
2019-03-29T00:24:06.881Z,9.43
2019-03-29T00:26:36.000Z,8.67
2019-03-29T00:29:04.664Z,9.33
2019-03-29T00:31:33.339Z,9.83
2019-03-29T00:34:01.917Z,10.80
2019-03-29T00:36:30.551Z,9.30
2019-03-29T00:38:59.165Z,10.20
2019-03-29T00:41:27.807Z,9.73
2019-03-29T00:43:56.564Z,9.50
2019-03-29T00:46:25.201Z,9.17
2019-03-29T00:48:53.933Z,9.63
2019-03-29T00:51:22.727Z,10.33
2019-03-29T00:53:51.465Z,9.43
2019-03-29T00:56:20.178Z,9.73
2019-03-29T00:58:49.108Z,10.73
2019-03-29T01:01:17.796Z,10.37
2019-03-29T01:03:46.563Z,10.50
2019-03-29T01:06:15.107Z,10.70
2019-03-29T01:08:43.827Z,10.27
2019-03-29T01:11:12.388Z,10.73
2019-03-29T01:13:41.124Z,10.70
2019-03-29T01:16:09.991Z,10.80
2019-03-29T01:18:39.736Z,11.27
2019-03-29T01:21:08.311Z,10.20
2019-03-29T01:23:36.827Z,10.03
2019-03-29T01:26:05.511Z,9.87
2019-03-29T01:28:34.038Z,9.90
2019-03-29T01:31:02.714Z,9.90
2019-03-29T01:33:31.275Z,8.63
2019-03-29T01:36:00.001Z,10.73
2019-03-29T01:38:28.693Z,10.93
2019-03-29T01:40:57.323Z,11.13
2019-03-29T01:43:25.900Z,10.60
2019-03-29T01:45:54.570Z,11.47
2019-03-29T01:48:23.314Z,10.73
2019-03-29T01:50:52.102Z,10.67
2019-03-29T01:53:20.880Z,10.57
2019-03-29T01:55:49.655Z,11.07
2019-03-29T01:58:18.268Z,10.63
2019-03-29T02:00:46.780Z,11.07
2019-03-29T02:03:15.400Z,11.30
2019-03-29T02:05:43.937Z,10.50
2019-03-29T02:08:12.659Z,11.03
2019-03-29T02:10:41.280Z,10.57
2019-03-29T02:13:12.481Z,10.70
2019-03-29T02:15:41.123Z,11.47
2019-03-29T02:18:09.777Z,11.97
2019-03-29T02:20:38.336Z,11.47
2019-03-29T02:23:07.004Z,10.57
2019-03-29T02:25:35.975Z,11.07
2019-03-29T02:28:04.516Z,10.83
2019-03-29T02:30:33.328Z,10.53
2019-03-29T02:33:01.969Z,10.70
2019-03-29T02:35:30.748Z,10.77
2019-03-29T02:37:59.424Z,10.83
2019-03-29T02:40:28.103Z,11.38
2019-03-29T02:42:56.689Z,11.10
2019-03-29T02:45:25.365Z,11.63
2019-03-29T02:47:53.871Z,10.37
2019-03-29T02:50:22.485Z,11.20
2019-03-29T02:52:51.138Z,10.47
2019-03-29T02:55:20.819Z,11.30
2019-03-29T02:57:49.355Z,11.40
2019-03-29T03:00:18.221Z,10.30
2019-03-29T03:02:46.943Z,11.33
2019-03-29T03:05:15.727Z,11.33
2019-03-29T03:07:44.472Z,10.93
2019-03-29T03:10:13.274Z,11.70
2019-03-29T03:12:41.981Z,12.17
2019-03-29T03:15:10.842Z,11.23
2019-03-29T03:17:40.576Z,11.87
2019-03-29T03:20:14.609Z,12.30
2019-03-29T03:22:41.474Z,12.87
2019-03-29T03:25:11.149Z,12.50
2019-03-29T03:27:39.802Z,13.23
2019-03-29T03:30:08.712Z,12.33
2019-03-29T03:32:37.225Z,12.50
2019-03-29T03:35:07.834Z,11.63
2019-03-29T03:37:36.597Z,11.53
2019-03-29T03:40:05.559Z,12.40
2019-03-29T03:42:34.177Z,12.83
2019-03-29T03:45:02.890Z,12.90
2019-03-29T03:47:31.504Z,12.93
2019-03-29T03:50:01.213Z,12.27
2019-03-29T03:52:30.357Z,12.30
2019-03-29T03:54:58.983Z,11.93
2019-03-29T03:57:27.665Z,12.03
2019-03-29T03:59:56.615Z,13.13
2019-03-29T04:02:25.223Z,12.47
2019-03-29T04:04:53.842Z,12.80
2019-03-29T04:07:22.578Z,12.07
2019-03-29T04:09:51.169Z,12.93
2019-03-29T04:12:19.924Z,12.90
2019-03-29T04:14:48.655Z,12.37
2019-03-29T04:17:17.381Z,12.27
2019-03-29T04:19:46.037Z,13.37
2019-03-29T04:22:14.882Z,12.80
2019-03-29T04:24:47.216Z,12.70
2019-03-29T04:27:17.375Z,13.23
2019-03-29T04:29:46.424Z,13.43
2019-03-29T04:32:15.238Z,13.97
2019-03-29T04:34:45.316Z,13.87
2019-03-29T04:37:14.687Z,13.10
2019-03-29T04:39:45.373Z,12.93
2019-03-29T04:42:14.919Z,12.73
2019-03-29T04:44:43.859Z,13.40
2019-03-29T04:47:16.929Z,13.53
2019-03-29T04:49:46.997Z,13.43
2019-03-29T04:52:15.733Z,12.97
2019-03-29T04:54:44.539Z,13.23
2019-03-29T04:57:27.697Z,12.47
2019-03-29T05:00:00.411Z,13.00
2019-03-29T05:02:34.849Z,12.73
2019-03-29T05:05:11.131Z,11.93
2019-03-29T05:07:40.228Z,13.50
2019-03-29T05:10:20.500Z,12.43
2019-03-29T05:12:39.364Z,12.77
2019-03-29T05:15:08.144Z,12.60
2019-03-29T05:17:36.838Z,12.60
2019-03-29T05:20:07.799Z,12.73
2019-03-29T05:22:38.215Z,11.87
2019-03-29T05:25:08.372Z,11.93
2019-03-29T05:27:37.265Z,12.13
2019-03-29T05:30:06.263Z,11.40
2019-03-29T05:32:34.847Z,11.73
2019-03-29T05:35:03.731Z,10.77
2019-03-29T05:37:32.418Z,11.30
2019-03-29T05:40:01.173Z,11.63
2019-03-29T05:42:29.803Z,11.50
2019-03-29T05:44:58.383Z,10.57
2019-03-29T05:47:26.915Z,10.57
2019-03-29T05:49:55.616Z,10.57
2019-03-29T05:52:24.373Z,11.57
2019-03-29T05:54:52.949Z,10.70
2019-03-29T05:57:21.597Z,10.87
2019-03-29T05:59:50.175Z,10.73
2019-03-29T06:02:18.869Z,11.33
2019-03-29T06:04:47.564Z,10.57
2019-03-29T06:07:16.273Z,10.10
2019-03-29T06:09:44.803Z,9.67
2019-03-29T06:12:13.370Z,10.27
2019-03-29T06:14:41.966Z,10.80
2019-03-29T06:17:10.536Z,10.30
2019-03-29T06:19:40.196Z,9.67
2019-03-29T06:22:08.910Z,10.83
2019-03-29T06:24:37.383Z,9.97
2019-03-29T06:27:06.100Z,10.40
2019-03-29T06:29:34.666Z,10.97
2019-03-29T06:32:03.471Z,10.67
2019-03-29T06:34:32.241Z,10.30
2019-03-29T06:37:01.381Z,10.67
2019-03-29T06:39:29.963Z,10.48
2019-03-29T06:41:58.760Z,9.60
2019-03-29T06:44:27.475Z,9.13
2019-03-29T06:46:56.261Z,9.37
2019-03-29T06:49:25.044Z,9.67
2019-03-29T06:51:53.650Z,10.13
2019-03-29T06:54:23.193Z,9.60
2019-03-29T06:56:51.864Z,9.37
2019-03-29T06:59:20.469Z,10.13
2019-03-29T07:01:49.163Z,9.93
2019-03-29T07:04:17.838Z,9.97
2019-03-29T07:06:46.499Z,9.77
2019-03-29T07:09:14.963Z,9.37
2019-03-29T07:11:43.585Z,9.80
2019-03-29T07:14:12.168Z,9.37
2019-03-29T07:16:40.991Z,9.53
2019-03-29T07:19:09.648Z,9.00
2019-03-29T07:21:38.333Z,9.20
2019-03-29T07:24:06.830Z,7.87
2019-03-29T07:26:37.274Z,8.40
2019-03-29T07:29:05.926Z,7.77
2019-03-29T07:31:34.665Z,7.47
2019-03-29T07:34:03.535Z,7.10
2019-03-29T07:36:32.146Z,7.57
2019-03-29T07:39:00.634Z,6.97
2019-03-29T07:41:32.275Z,7.30
2019-03-29T07:43:59.743Z,7.10
2019-03-29T07:46:28.300Z,7.53
2019-03-29T07:48:57.153Z,7.47
2019-03-29T07:51:25.730Z,7.00
2019-03-29T07:53:54.395Z,7.50
2019-03-29T07:56:23.129Z,7.00
2019-03-29T07:58:51.716Z,7.33
2019-03-29T08:01:20.207Z,7.33
2019-03-29T08:03:51.290Z,6.80
2019-03-29T08:06:19.167Z,6.93
2019-03-29T08:08:47.867Z,7.20
2019-03-29T08:11:25.994Z,7.20
2019-03-29T08:13:46.866Z,6.90
2019-03-29T08:16:15.486Z,7.13
2019-03-29T08:18:44.081Z,7.60
2019-03-29T08:21:12.808Z,7.43
2019-03-29T08:23:41.359Z,6.97
2019-03-29T08:26:10.027Z,6.93
2019-03-29T08:28:38.691Z,7.40
2019-03-29T08:31:07.451Z,6.87
2019-03-29T08:33:36.248Z,7.00
2019-03-29T08:36:04.982Z,8.20
2019-03-29T08:38:33.510Z,7.60
2019-03-29T08:41:02.183Z,8.13
2019-03-29T08:43:31.869Z,7.60
2019-03-29T08:46:00.722Z,7.50
2019-03-29T08:48:29.294Z,7.73
2019-03-29T08:50:58.034Z,7.17
2019-03-29T08:53:27.546Z,7.97
2019-03-29T08:55:56.465Z,7.80
2019-03-29T08:58:25.188Z,7.93
2019-03-29T09:00:53.811Z,7.80
2019-03-29T09:03:22.576Z,8.07
2019-03-29T09:05:52.366Z,7.90
2019-03-29T09:08:21.139Z,8.37
2019-03-29T09:10:49.839Z,8.60
2019-03-29T09:13:18.590Z,10.20
2019-03-29T09:15:47.130Z,8.50
2019-03-29T09:18:15.803Z,9.30
2019-03-29T09:20:44.552Z,8.70
2019-03-29T09:23:13.443Z,7.97
2019-03-29T09:25:42.027Z,7.33
2019-03-29T09:28:10.695Z,8.00
2019-03-29T09:30:40.231Z,7.50
2019-03-29T09:33:08.795Z,7.43
2019-03-29T09:35:37.627Z,6.67
2019-03-29T09:38:06.278Z,6.30
2019-03-29T09:40:35.026Z,6.73
2019-03-29T09:43:07.948Z,4.83
2019-03-29T09:45:34.118Z,6.28
2019-03-29T09:48:02.882Z,7.17
2019-03-29T09:50:31.587Z,6.80
2019-03-29T09:53:01.420Z,6.30
2019-03-29T09:55:30.437Z,7.10
2019-03-29T09:57:59.158Z,7.50
2019-03-29T10:00:27.734Z,6.50
2019-03-29T10:02:56.516Z,7.05
2019-03-29T10:05:25.136Z,6.00
2019-03-29T10:07:53.802Z,6.63
2019-03-29T10:10:22.470Z,6.20
2019-03-29T10:12:52.166Z,6.73
2019-03-29T10:15:20.763Z,5.63
2019-03-29T10:17:49.588Z,5.80
2019-03-29T10:20:18.158Z,5.40
2019-03-29T10:22:46.792Z,5.60
2019-03-29T10:25:19.742Z,4.70
2019-03-29T10:27:46.082Z,5.37
2019-03-29T10:30:16.457Z,5.70
2019-03-29T10:32:44.989Z,5.43
2019-03-29T10:35:13.567Z,5.47
2019-03-29T10:37:42.002Z,5.37
2019-03-29T10:40:10.681Z,5.40
2019-03-29T10:42:40.338Z,5.73
2019-03-29T10:45:09.247Z,6.10
2019-03-29T10:47:43.635Z,5.27
2019-03-29T10:50:09.372Z,5.43
2019-03-29T10:52:37.850Z,5.37
2019-03-29T10:55:06.419Z,5.00
2019-03-29T10:57:35.149Z,5.03
2019-03-29T11:00:05.558Z,5.20
2019-03-29T11:02:34.334Z,5.00
2019-03-29T11:05:03.019Z,4.03
2019-03-29T11:07:31.601Z,4.55
2019-03-29T11:10:00.455Z,5.23
2019-03-29T11:12:29.196Z,5.03
2019-03-29T11:14:57.841Z,4.80
2019-03-29T11:17:26.306Z,4.60
2019-03-29T11:19:54.899Z,5.35
2019-03-29T11:22:23.496Z,5.97
2019-03-29T11:24:52.073Z,4.97
2019-03-29T11:27:22.501Z,4.90
2019-03-29T11:29:51.232Z,5.10
2019-03-29T11:32:21.938Z,4.80
2019-03-29T11:34:50.614Z,4.50
2019-03-29T11:37:19.126Z,4.83
2019-03-29T11:39:47.989Z,5.30
2019-03-29T11:42:16.487Z,4.57
2019-03-29T11:44:45.170Z,4.70
2019-03-29T11:47:13.858Z,4.67
2019-03-29T11:49:42.399Z,4.47
2019-03-29T11:52:11.066Z,4.60
2019-03-29T11:54:39.739Z,6.03
2019-03-29T11:57:08.339Z,4.67
2019-03-29T11:59:40.007Z,5.23
2019-03-29T12:02:07.516Z,4.90
2019-03-29T12:04:36.280Z,4.90
2019-03-29T12:07:04.783Z,4.87
2019-03-29T12:09:33.406Z,5.10
2019-03-29T12:12:01.845Z,4.90
2019-03-29T12:14:30.488Z,5.67
2019-03-29T12:16:59.106Z,5.28
2019-03-29T12:19:27.837Z,4.43
2019-03-29T12:21:56.495Z,5.20
2019-03-29T12:24:25.167Z,5.00
2019-03-29T12:26:54.994Z,5.17
2019-03-29T12:29:23.898Z,5.70
2019-03-29T12:31:53.556Z,5.27
2019-03-29T12:34:24.160Z,5.70
2019-03-29T12:36:54.092Z,5.60
2019-03-29T12:39:23.069Z,5.10
2019-03-29T12:41:52.095Z,5.67
2019-03-29T12:44:21.143Z,5.40
2019-03-29T12:46:49.927Z,5.67
2019-03-29T12:49:18.910Z,6.33
2019-03-29T12:51:47.895Z,5.57
2019-03-29T12:54:17.287Z,6.43
2019-03-29T12:56:46.512Z,5.57
2019-03-29T12:59:15.844Z,5.35
2019-03-29T13:01:44.960Z,5.70
2019-03-29T13:04:14.188Z,5.78
2019-03-29T13:06:43.364Z,5.70
2019-03-29T13:09:12.486Z,5.60
2019-03-29T13:11:41.699Z,5.77
2019-03-29T13:14:11.029Z,6.10
2019-03-29T13:16:40.196Z,5.60
2019-03-29T13:19:09.089Z,5.37
2019-03-29T13:21:38.945Z,6.20
2019-03-29T13:24:08.201Z,5.60
2019-03-29T13:26:37.425Z,5.78
2019-03-29T13:29:06.546Z,6.00
2019-03-29T13:31:35.787Z,5.77
2019-03-29T13:34:04.792Z,6.60
2019-03-29T13:36:35.908Z,5.83
2019-03-29T13:39:06.269Z,5.50
2019-03-29T13:41:35.421Z,6.05
2019-03-29T13:44:04.527Z,6.10
2019-03-29T13:46:34.505Z,6.07
2019-03-29T13:49:03.501Z,6.63
2019-03-29T13:51:32.536Z,5.50
2019-03-29T13:54:01.459Z,6.40
2019-03-29T13:56:30.682Z,6.25
2019-03-29T13:58:59.843Z,5.97
2019-03-29T14:01:28.562Z,5.83
2019-03-29T14:03:57.189Z,5.70
2019-03-29T14:06:25.884Z,5.50
2019-03-29T14:08:54.439Z,5.97
2019-03-29T14:11:23.325Z,6.10
2019-03-29T14:13:51.910Z,6.10
2019-03-29T14:16:20.596Z,5.83
2019-03-29T14:18:49.127Z,6.27
2019-03-29T14:21:17.843Z,6.13
2019-03-29T14:23:46.437Z,7.00
2019-03-29T14:26:16.363Z,6.87
2019-03-29T14:28:45.166Z,6.50
2019-03-29T14:31:13.904Z,6.43
2019-03-29T14:33:42.524Z,6.07
2019-03-29T14:36:12.346Z,6.50
2019-03-29T14:38:41.244Z,6.37
2019-03-29T14:41:10.324Z,6.00
2019-03-29T14:43:39.938Z,6.23
2019-03-29T14:46:08.550Z,6.17
2019-03-29T14:48:37.394Z,8.60
2019-03-29T14:51:06.107Z,7.97
2019-03-29T14:53:34.805Z,7.97
2019-03-29T14:56:03.498Z,7.63
2019-03-29T14:58:32.173Z,6.80
2019-03-29T15:01:00.647Z,7.90
2019-03-29T15:03:29.222Z,6.10
2019-03-29T15:05:57.943Z,6.20
2019-03-29T15:08:26.652Z,6.77
2019-03-29T15:10:55.601Z,6.53
2019-03-29T15:13:24.185Z,7.67
2019-03-29T15:15:53.666Z,7.73
2019-03-29T15:18:22.610Z,7.27
2019-03-29T15:20:53.849Z,6.37
2019-03-29T15:23:23.348Z,6.10
2019-03-29T15:25:52.085Z,6.37
2019-03-29T15:28:20.598Z,8.10
2019-03-29T15:30:52.260Z,7.50
2019-03-29T15:33:19.671Z,7.30
2019-03-29T15:35:48.262Z,8.40
2019-03-29T15:38:17.852Z,7.00
2019-03-29T15:40:46.639Z,7.27
2019-03-29T15:43:15.332Z,7.20
2019-03-29T15:45:44.112Z,6.03
2019-03-29T15:48:13.771Z,6.50
2019-03-29T15:50:42.379Z,6.40
2019-03-29T15:53:11.097Z,6.60
2019-03-29T15:55:39.935Z,6.93
2019-03-29T15:58:08.603Z,7.00
2019-03-29T16:00:37.302Z,6.87
2019-03-29T16:03:06.037Z,8.07
2019-03-29T16:05:34.585Z,5.83
2019-03-29T16:08:04.284Z,7.73
2019-03-29T16:10:32.866Z,7.40
2019-03-29T16:13:01.594Z,8.70
2019-03-29T16:15:36.531Z,8.27
2019-03-29T16:18:00.765Z,8.97
2019-03-29T16:20:29.491Z,8.47
2019-03-29T16:22:58.113Z,9.03
2019-03-29T16:25:26.924Z,8.20
2019-03-29T16:27:55.426Z,13.93
2019-03-29T16:30:24.077Z,8.33
2019-03-29T16:32:52.767Z,9.67
2019-03-29T16:35:21.388Z,9.60
2019-03-29T16:37:57.093Z,8.93
2019-03-29T16:40:20.601Z,9.50
2019-03-29T16:42:49.402Z,9.93
2019-03-29T16:45:18.045Z,10.50
2019-03-29T16:47:46.753Z,10.73
2019-03-29T16:50:15.197Z,10.00
2019-03-29T16:52:43.901Z,10.73
2019-03-29T16:55:14.113Z,11.43
2019-03-29T16:57:43.174Z,11.70
2019-03-29T17:00:12.843Z,13.50
2019-03-29T17:02:41.856Z,13.23
2019-03-29T17:05:10.769Z,12.10
2019-03-29T17:07:39.531Z,12.17
2019-03-29T17:10:08.223Z,10.67
2019-03-29T17:12:36.932Z,10.77
2019-03-29T17:15:05.866Z,10.23
2019-03-29T17:17:34.773Z,9.87
2019-03-29T17:20:05.699Z,9.83
2019-03-29T17:22:35.278Z,11.30
2019-03-29T17:25:04.582Z,10.40
2019-03-29T17:27:33.278Z,11.10
2019-03-29T17:30:02.084Z,10.53
2019-03-29T17:32:31.712Z,10.33
2019-03-29T17:35:00.389Z,10.53
2019-03-29T17:37:29.126Z,11.80
2019-03-29T17:39:59.878Z,12.53
2019-03-29T17:42:28.598Z,12.57
2019-03-29T17:44:58.979Z,12.63
2019-03-29T17:47:27.556Z,23.03
2019-03-29T17:49:56.233Z,26.23
2019-03-29T17:52:24.916Z,16.43
2019-03-29T17:54:54.766Z,14.27
2019-03-29T17:57:23.359Z,13.67
2019-03-29T17:59:52.130Z,13.67
2019-03-29T18:02:21.475Z,13.30
2019-03-29T18:04:50.276Z,13.57
2019-03-29T18:07:25.025Z,14.93
2019-03-29T18:10:02.488Z,41.30
2019-03-29T18:12:38.463Z,35.23
2019-03-29T18:15:08.130Z,16.20
2019-03-29T18:17:42.181Z,13.90
2019-03-29T18:20:13.828Z,14.63
2019-03-29T18:22:42.420Z,15.37
2019-03-29T18:25:11.263Z,15.20
2019-03-29T18:27:39.822Z,13.73
2019-03-29T18:30:09.974Z,16.07
2019-03-29T18:32:38.556Z,16.77
2019-03-29T18:35:11.734Z,16.73
2019-03-29T18:37:41.517Z,17.33
2019-03-29T18:40:15.087Z,15.70
2019-03-29T18:42:43.777Z,17.30
2019-03-29T18:45:12.672Z,17.20
2019-03-29T18:47:41.423Z,16.53
2019-03-29T18:50:09.997Z,15.73
2019-03-29T18:52:38.711Z,16.37
2019-03-29T18:55:07.265Z,17.33
2019-03-29T18:57:36.098Z,17.87
2019-03-29T19:00:05.442Z,19.37
2019-03-29T19:02:34.560Z,19.43
2019-03-29T19:05:03.417Z,18.83
2019-03-29T19:07:32.110Z,19.83
2019-03-29T19:10:00.978Z,21.70
2019-03-29T19:12:29.863Z,23.50
2019-03-29T19:14:58.634Z,23.73
2019-03-29T19:17:27.480Z,23.03
2019-03-29T19:19:56.004Z,22.17
2019-03-29T19:22:24.617Z,22.23
2019-03-29T19:24:53.311Z,24.97
2019-03-29T19:27:21.938Z,27.00
2019-03-29T19:29:50.523Z,26.07
2019-03-29T19:32:19.226Z,23.60
2019-03-29T19:34:47.741Z,23.93
2019-03-29T19:37:16.231Z,20.33
2019-03-29T19:39:44.830Z,23.60
2019-03-29T19:42:16.597Z,23.80
2019-03-29T19:44:43.873Z,23.60
2019-03-29T19:47:13.733Z,22.80
2019-03-29T19:49:42.927Z,22.20
2019-03-29T19:52:11.707Z,23.13
2019-03-29T19:54:40.257Z,26.23
2019-03-29T19:57:09.186Z,27.10
2019-03-29T19:59:38.103Z,27.00
2019-03-29T20:02:06.941Z,25.97
2019-03-29T20:04:35.642Z,25.07
2019-03-29T20:07:04.702Z,29.70
2019-03-29T20:09:33.306Z,27.87
2019-03-29T20:12:02.111Z,26.77
2019-03-29T20:14:30.859Z,27.27
2019-03-29T20:16:59.629Z,24.27
2019-03-29T20:19:28.426Z,22.67
2019-03-29T20:21:57.095Z,23.80
2019-03-29T20:24:25.609Z,21.50
2019-03-29T20:26:54.274Z,22.93
2019-03-29T20:29:23.085Z,23.77
2019-03-29T20:31:51.594Z,25.07
2019-03-29T20:34:20.121Z,24.20
2019-03-29T20:36:48.829Z,24.13
2019-03-29T20:39:18.458Z,24.83
2019-03-29T20:41:46.990Z,25.63
2019-03-29T20:44:15.704Z,24.20
2019-03-29T20:46:44.181Z,22.97
2019-03-29T20:49:12.916Z,23.57
2019-03-29T20:51:42.540Z,25.50
2019-03-29T20:54:11.245Z,28.67
2019-03-29T20:56:39.930Z,28.10
2019-03-29T20:59:08.622Z,27.33
2019-03-29T21:01:37.272Z,25.67
2019-03-29T21:04:05.953Z,28.07
2019-03-29T21:06:34.606Z,26.97
2019-03-29T21:09:04.893Z,26.23
2019-03-29T21:11:34.646Z,25.13
2019-03-29T21:14:03.325Z,25.73
2019-03-29T21:16:32.090Z,26.97
2019-03-29T21:19:00.819Z,26.77
2019-03-29T21:21:29.427Z,28.43
2019-03-29T21:23:58.006Z,27.43
2019-03-29T21:26:26.790Z,27.23
2019-03-29T21:28:55.539Z,26.77
2019-03-29T21:31:24.207Z,26.13
2019-03-29T21:33:52.865Z,26.03
2019-03-29T21:36:21.584Z,25.43
2019-03-29T21:38:50.172Z,24.57
2019-03-29T21:41:18.753Z,25.20
2019-03-29T21:43:47.246Z,25.47
2019-03-29T21:46:15.898Z,26.07
2019-03-29T21:48:44.578Z,25.47
2019-03-29T21:51:13.294Z,27.30
2019-03-29T21:53:43.794Z,27.03
2019-03-29T21:56:12.454Z,25.37
2019-03-29T21:58:41.049Z,25.50
2019-03-29T22:01:09.660Z,25.37
2019-03-29T22:03:38.351Z,25.40
2019-03-29T22:06:07.115Z,24.67
2019-03-29T22:08:35.658Z,25.77
2019-03-29T22:11:04.449Z,24.73
2019-03-29T22:13:32.950Z,24.43
2019-03-29T22:16:01.665Z,25.53
2019-03-29T22:18:37.761Z,25.17
2019-03-29T22:21:00.991Z,27.10
2019-03-29T22:23:29.729Z,25.47
2019-03-29T22:25:58.189Z,25.30
2019-03-29T22:28:26.893Z,24.43
2019-03-29T22:30:55.635Z,25.53
2019-03-29T22:33:24.107Z,25.20
2019-03-29T22:35:52.681Z,24.13
2019-03-29T22:38:21.335Z,24.77
2019-03-29T22:40:50.042Z,25.10
2019-03-29T22:43:18.714Z,25.30
2019-03-29T22:45:48.403Z,24.67
2019-03-29T22:48:16.925Z,25.10
2019-03-29T22:50:45.539Z,23.77
2019-03-29T22:53:29.511Z,23.40
2019-03-29T22:56:05.402Z,24.82
2019-03-29T22:58:35.209Z,24.50
2019-03-29T23:01:05.100Z,23.17
2019-03-29T23:03:34.018Z,23.00
2019-03-29T23:06:02.811Z,22.93
2019-03-29T23:08:31.437Z,21.73
2019-03-29T23:11:00.058Z,23.37
2019-03-29T23:13:30.529Z,23.30
2019-03-29T23:15:59.133Z,22.97
2019-03-29T23:18:27.808Z,22.83
2019-03-29T23:20:56.609Z,22.90
2019-03-29T23:23:25.216Z,22.67
2019-03-29T23:25:53.985Z,23.00
2019-03-29T23:28:22.801Z,22.27
2019-03-29T23:30:51.312Z,20.47
2019-03-29T23:33:19.899Z,21.33
2019-03-29T23:35:48.718Z,22.43
2019-03-29T23:38:17.302Z,21.03
2019-03-29T23:40:46.126Z,21.17
2019-03-29T23:43:14.702Z,21.50
2019-03-29T23:45:43.392Z,21.33
2019-03-29T23:48:12.183Z,21.47
2019-03-29T23:50:41.038Z,22.27
2019-03-29T23:53:09.664Z,21.80
2019-03-29T23:55:38.350Z,21.00
2019-03-29T23:58:07.097Z,20.63
